Kaumakani, Hawaii
Current Conditions -  °F | °C
As of 3:56 AM on Monday 22 Dec 2014 (Local Time) from PHBK Reporting Station
Light Rain Light Rain  
Wind Chill: 69°   Ceiling: 2600
Heat Index: 69°   Visibility: 10mi
Dew Point: 63°   Wind: 23mph
Humidity: 81%   Direction: 20°NNE
Pressure: 30.02"   Gusts: 33mph
Location:  21.91°N, 159.61°W
Report Text: PHBK 221356Z AUTO 02020G29KT 10SM -RA BKN026 OVC034 21/17 A3002 RMK AO2 PK WND 36032/1344 SLP168 P0000 T02060172 $
Loading
Personal Weather Stations






























Interactive Weather Map New forecast layout! Learn more

10-Day Weather Forecast

Advertisements
Track Severe Weather on mobile